createdAt,value
2019-02-21T00:01:49.098Z,11.17
2019-02-21T00:04:17.688Z,10.37
2019-02-21T00:06:45.728Z,10.97
2019-02-21T00:09:13.784Z,13.30
2019-02-21T00:11:41.838Z,12.13
2019-02-21T00:14:09.890Z,11.70
2019-02-21T00:16:37.944Z,10.80
2019-02-21T00:19:06.046Z,10.50
2019-02-21T00:21:34.222Z,16.13
2019-02-21T00:24:02.279Z,14.17
2019-02-21T00:26:30.337Z,13.07
2019-02-21T00:28:58.390Z,12.17
2019-02-21T00:31:26.434Z,10.07
2019-02-21T00:33:55.039Z,11.00
2019-02-21T00:36:23.134Z,11.67
2019-02-21T00:38:51.189Z,11.43
2019-02-21T00:41:19.250Z,14.40
2019-02-21T00:43:47.318Z,11.80
2019-02-21T00:46:15.380Z,10.87
2019-02-21T00:48:43.446Z,14.40
2019-02-21T00:51:11.504Z,13.10
2019-02-21T00:53:39.550Z,14.47
2019-02-21T00:56:07.614Z,14.73
2019-02-21T00:58:35.663Z,14.53
2019-02-21T01:01:03.713Z,12.90
2019-02-21T01:03:31.786Z,13.67
2019-02-21T01:05:59.844Z,12.33
2019-02-21T01:08:27.906Z,14.53
2019-02-21T01:10:55.959Z,9.50
2019-02-21T01:13:24.014Z,12.13
2019-02-21T01:15:52.062Z,12.00
2019-02-21T01:18:20.131Z,11.63
2019-02-21T01:20:48.189Z,11.27
2019-02-21T01:23:16.248Z,11.83
2019-02-21T01:25:44.298Z,13.30
2019-02-21T01:28:12.350Z,14.27
2019-02-21T01:30:40.400Z,11.60
2019-02-21T01:33:08.446Z,15.20
2019-02-21T01:35:37.256Z,12.60
2019-02-21T01:38:05.351Z,12.27
2019-02-21T01:40:33.423Z,14.70
2019-02-21T01:43:01.493Z,15.93
2019-02-21T01:45:29.535Z,15.07
2019-02-21T01:47:57.611Z,11.13
2019-02-21T01:50:25.659Z,14.17
2019-02-21T01:52:53.706Z,11.43
2019-02-21T01:55:21.783Z,11.27
2019-02-21T01:57:49.834Z,12.73
2019-02-21T02:00:17.888Z,8.63
2019-02-21T02:02:46.038Z,11.97
2019-02-21T02:05:14.094Z,13.73
2019-02-21T02:07:42.142Z,11.63
2019-02-21T02:10:10.277Z,11.17
2019-02-21T02:12:38.338Z,11.67
2019-02-21T02:15:08.006Z,11.73
2019-02-21T02:17:36.077Z,10.37
2019-02-21T02:20:05.042Z,11.03
2019-02-21T02:22:33.166Z,11.57
2019-02-21T02:25:01.223Z,9.37
2019-02-21T02:27:29.303Z,12.57
2019-02-21T02:29:57.351Z,8.83
2019-02-21T02:32:25.402Z,8.80
2019-02-21T02:34:53.462Z,10.43
2019-02-21T02:37:21.895Z,8.57
2019-02-21T02:39:49.938Z,11.77
2019-02-21T02:42:17.995Z,10.93
2019-02-21T02:44:46.065Z,10.40
2019-02-21T02:47:14.115Z,11.80
2019-02-21T02:49:42.170Z,10.90
2019-02-21T02:52:10.275Z,9.77
2019-02-21T02:54:38.370Z,7.80
2019-02-21T02:57:06.439Z,11.53
2019-02-21T02:59:40.946Z,10.53
2019-02-21T03:02:04.327Z,10.20
2019-02-21T03:04:32.466Z,9.77
2019-02-21T03:07:00.554Z,10.37
2019-02-21T03:09:28.738Z,10.33
2019-02-21T03:11:56.834Z,10.87
2019-02-21T03:14:24.923Z,10.10
2019-02-21T03:16:53.050Z,11.60
2019-02-21T03:19:21.094Z,11.67
2019-02-21T03:21:49.145Z,8.23
2019-02-21T03:24:17.199Z,12.00
2019-02-21T03:26:45.242Z,9.20
2019-02-21T03:29:13.302Z,8.23
2019-02-21T03:31:53.393Z,7.97
2019-02-21T03:34:11.144Z,11.03
2019-02-21T03:36:39.193Z,10.20
2019-02-21T03:39:07.626Z,11.70
2019-02-21T03:41:35.659Z,11.07
2019-02-21T03:44:03.765Z,9.73
2019-02-21T03:46:31.808Z,8.47
2019-02-21T03:48:59.855Z,8.43
2019-02-21T03:51:29.182Z,9.43
2019-02-21T03:53:57.326Z,8.23
2019-02-21T03:56:25.442Z,10.73
2019-02-21T03:58:53.488Z,9.57
2019-02-21T04:01:21.554Z,15.83
2019-02-21T04:03:49.598Z,11.63
2019-02-21T04:06:17.651Z,8.93
2019-02-21T04:08:45.708Z,11.03
2019-02-21T04:11:13.743Z,9.60
2019-02-21T04:13:41.817Z,8.90
2019-02-21T04:16:09.866Z,13.47
2019-02-21T04:18:37.923Z,8.10
2019-02-21T04:21:05.971Z,9.50
2019-02-21T04:23:34.051Z,9.90
2019-02-21T04:26:02.134Z,7.77
2019-02-21T04:28:30.185Z,7.57
2019-02-21T04:30:58.247Z,11.13
2019-02-21T04:33:26.298Z,8.13
2019-02-21T04:35:54.345Z,9.20
2019-02-21T04:38:22.406Z,9.30
2019-02-21T04:40:50.448Z,6.40
2019-02-21T04:43:18.491Z,7.60
2019-02-21T04:45:46.542Z,8.87
2019-02-21T04:48:14.613Z,7.07
2019-02-21T04:50:42.646Z,8.33
2019-02-21T04:53:10.712Z,8.00
2019-02-21T04:55:38.759Z,9.47
2019-02-21T04:58:07.188Z,8.73
2019-02-21T05:00:35.235Z,10.27
2019-02-21T05:03:03.288Z,9.83
2019-02-21T05:05:31.356Z,11.47
2019-02-21T05:07:59.407Z,7.43
2019-02-21T05:10:27.463Z,11.97
2019-02-21T05:12:56.111Z,9.13
2019-02-21T05:15:24.178Z,11.07
2019-02-21T05:17:52.241Z,9.80
2019-02-21T05:20:20.314Z,11.00
2019-02-21T05:22:48.357Z,9.30
2019-02-21T05:25:16.399Z,12.23
2019-02-21T05:27:46.051Z,12.53
2019-02-21T05:30:15.734Z,9.40
2019-02-21T05:32:48.513Z,19.43
2019-02-21T05:35:18.237Z,14.10
2019-02-21T05:37:47.926Z,12.00
2019-02-21T05:40:28.608Z,13.30
2019-02-21T05:42:57.926Z,12.07
2019-02-21T05:45:27.610Z,14.70
2019-02-21T05:48:09.104Z,14.97
2019-02-21T05:50:38.770Z,13.20
2019-02-21T05:53:20.180Z,13.00
2019-02-21T05:55:55.787Z,13.90
2019-02-21T05:58:43.306Z,25.20
2019-02-21T06:01:15.670Z,29.10
2019-02-21T06:03:45.366Z,12.10
2019-02-21T06:06:17.221Z,14.97
2019-02-21T06:08:49.223Z,9.60
2019-02-21T06:11:37.214Z,15.73
2019-02-21T06:14:09.558Z,20.20
2019-02-21T06:16:39.246Z,12.23
2019-02-21T06:19:08.971Z,10.40
2019-02-21T06:21:53.759Z,14.17
2019-02-21T06:24:26.120Z,13.13
2019-02-21T06:27:12.396Z,15.13
2019-02-21T06:29:58.516Z,16.83
2019-02-21T06:32:26.579Z,12.23
2019-02-21T06:34:54.634Z,11.37
2019-02-21T06:37:22.695Z,13.10
2019-02-21T06:39:50.762Z,12.03
2019-02-21T06:42:18.814Z,13.27
2019-02-21T06:44:46.887Z,10.33
2019-02-21T06:47:14.947Z,10.27
2019-02-21T06:49:43.010Z,13.17
2019-02-21T06:52:15.647Z,14.10
2019-02-21T06:54:43.859Z,15.53
2019-02-21T06:57:11.964Z,10.90
2019-02-21T06:59:44.536Z,14.03
2019-02-21T07:02:09.757Z,15.00
2019-02-21T07:04:37.807Z,14.07
2019-02-21T07:07:05.854Z,15.00
2019-02-21T07:09:33.902Z,15.23
2019-02-21T07:12:01.962Z,16.37
2019-02-21T07:14:30.006Z,15.33
2019-02-21T07:16:58.271Z,11.93
2019-02-21T07:19:26.384Z,15.57
2019-02-21T07:21:54.445Z,20.57
2019-02-21T07:24:22.666Z,23.27
2019-02-21T07:26:50.714Z,24.73
2019-02-21T07:29:18.782Z,15.23
2019-02-21T07:31:49.278Z,15.30
2019-02-21T07:34:16.623Z,14.57
2019-02-21T07:36:44.681Z,16.77
2019-02-21T07:39:18.438Z,17.00
2019-02-21T07:41:43.231Z,19.23
2019-02-21T07:44:12.525Z,16.53
2019-02-21T07:46:40.694Z,19.20
2019-02-21T07:49:08.762Z,15.33
2019-02-21T07:51:36.806Z,19.87
2019-02-21T07:54:04.873Z,20.20
2019-02-21T07:56:41.473Z,21.07
2019-02-21T07:59:02.686Z,16.50
2019-02-21T08:01:30.746Z,20.27
2019-02-21T08:03:58.808Z,21.90
2019-02-21T08:06:26.863Z,19.60
2019-02-21T08:08:54.911Z,24.90
2019-02-21T08:11:22.997Z,19.90
2019-02-21T08:13:51.032Z,20.90
2019-02-21T08:16:19.090Z,24.80
2019-02-21T08:18:48.060Z,26.30
2019-02-21T08:21:16.178Z,22.50
2019-02-21T08:23:50.550Z,23.50
2019-02-21T08:26:14.050Z,18.70
2019-02-21T08:28:42.094Z,18.93
2019-02-21T08:31:10.183Z,19.80
2019-02-21T08:33:39.871Z,22.73
2019-02-21T08:36:07.929Z,24.73
2019-02-21T08:38:36.002Z,22.13
2019-02-21T08:41:04.062Z,22.03
2019-02-21T08:43:32.115Z,20.90
2019-02-21T08:46:00.170Z,25.40
2019-02-21T08:48:28.274Z,28.53
2019-02-21T08:50:56.391Z,27.23
2019-02-21T08:53:24.446Z,24.03
2019-02-21T08:55:52.502Z,26.87
2019-02-21T08:58:20.812Z,23.10
2019-02-21T09:00:48.887Z,27.13
2019-02-21T09:03:18.153Z,25.40
2019-02-21T09:05:46.243Z,28.17
2019-02-21T09:08:16.623Z,26.87
2019-02-21T09:10:44.108Z,29.60
2019-02-21T09:13:12.652Z,30.90
2019-02-21T09:15:40.748Z,28.30
2019-02-21T09:18:08.827Z,27.93
2019-02-21T09:20:36.902Z,31.80
2019-02-21T09:23:04.956Z,31.17
2019-02-21T09:25:33.018Z,29.60
2019-02-21T09:28:01.072Z,32.87
2019-02-21T09:30:29.167Z,33.57
2019-02-21T09:32:57.262Z,31.03
2019-02-21T09:35:25.310Z,32.50
2019-02-21T09:37:53.362Z,35.53
2019-02-21T09:40:21.601Z,35.80
2019-02-21T09:42:49.661Z,35.03
2019-02-21T09:45:18.206Z,40.80
2019-02-21T09:47:46.250Z,33.90
2019-02-21T09:50:14.311Z,32.77
2019-02-21T09:52:42.374Z,34.27
2019-02-21T09:55:14.233Z,38.87
2019-02-21T09:57:42.303Z,33.27
2019-02-21T10:00:14.343Z,32.47
2019-02-21T10:02:42.500Z,34.70
2019-02-21T10:05:10.623Z,33.80
2019-02-21T10:07:38.670Z,34.23
2019-02-21T10:10:08.631Z,32.30
2019-02-21T10:12:36.682Z,32.77
2019-02-21T10:15:06.351Z,32.77
2019-02-21T10:17:34.448Z,30.23
2019-02-21T10:20:04.247Z,34.83
2019-02-21T10:22:32.411Z,29.60
2019-02-21T10:25:00.486Z,31.77
2019-02-21T10:27:28.554Z,39.50
2019-02-21T10:29:56.610Z,34.03
2019-02-21T10:32:24.666Z,34.87
2019-02-21T10:34:53.170Z,34.80
2019-02-21T10:37:21.276Z,38.57
2019-02-21T10:39:49.320Z,34.30
2019-02-21T10:42:17.380Z,38.43
2019-02-21T10:44:45.945Z,32.17
2019-02-21T10:47:13.978Z,33.80
2019-02-21T10:49:42.035Z,38.10
2019-02-21T10:52:11.357Z,34.70
2019-02-21T10:54:39.419Z,36.03
2019-02-21T10:57:07.474Z,35.70
2019-02-21T10:59:45.947Z,35.67
2019-02-21T11:02:05.360Z,36.33
2019-02-21T11:04:33.404Z,34.63
2019-02-21T11:07:01.473Z,37.00
2019-02-21T11:09:29.547Z,33.43
2019-02-21T11:11:57.610Z,31.03
2019-02-21T11:14:25.665Z,30.27
2019-02-21T11:16:53.735Z,33.47
2019-02-21T11:19:21.792Z,30.10
2019-02-21T11:21:50.831Z,32.60
2019-02-21T11:24:18.926Z,36.03
2019-02-21T11:26:46.970Z,36.70
2019-02-21T11:29:15.084Z,30.40
2019-02-21T11:31:43.178Z,29.60
2019-02-21T11:34:11.222Z,33.43
2019-02-21T11:36:39.270Z,35.20
2019-02-21T11:39:07.432Z,33.30
2019-02-21T11:41:35.574Z,33.43
2019-02-21T11:44:03.635Z,34.70
2019-02-21T11:46:31.679Z,33.10
2019-02-21T11:48:59.724Z,32.03
2019-02-21T11:51:28.557Z,30.07
2019-02-21T11:53:56.752Z,28.93
2019-02-21T11:56:24.799Z,31.17
2019-02-21T11:58:52.852Z,37.13
2019-02-21T12:01:20.907Z,29.30
2019-02-21T12:03:48.944Z,29.30
2019-02-21T12:06:17.019Z,31.37
2019-02-21T12:08:45.072Z,27.50
2019-02-21T12:11:13.126Z,28.93
2019-02-21T12:13:41.170Z,30.20
2019-02-21T12:16:10.061Z,34.67
2019-02-21T12:18:38.202Z,30.37
2019-02-21T12:21:06.287Z,30.00
2019-02-21T12:23:34.397Z,28.93
2019-02-21T12:26:02.469Z,31.60
2019-02-21T12:28:30.519Z,32.60
2019-02-21T12:30:58.603Z,34.20
2019-02-21T12:33:26.671Z,30.37
2019-02-21T12:35:54.717Z,33.47
2019-02-21T12:38:22.791Z,36.57
2019-02-21T12:40:50.826Z,31.73
2019-02-21T12:43:18.898Z,32.13
2019-02-21T12:45:46.956Z,31.97
2019-02-21T12:48:15.010Z,29.93
2019-02-21T12:50:44.475Z,28.57
2019-02-21T12:53:12.822Z,29.77
2019-02-21T12:55:40.877Z,31.90
2019-02-21T12:58:09.004Z,32.10
2019-02-21T13:00:37.064Z,34.27
2019-02-21T13:03:05.246Z,30.53
2019-02-21T13:05:40.987Z,32.13
2019-02-21T13:08:03.090Z,25.27
2019-02-21T13:10:31.202Z,30.60
2019-02-21T13:12:59.262Z,33.40
2019-02-21T13:15:27.322Z,30.47
2019-02-21T13:17:55.372Z,25.40
2019-02-21T13:20:23.430Z,31.07
2019-02-21T13:22:51.502Z,36.03
2019-02-21T13:25:19.556Z,32.83
2019-02-21T13:27:47.606Z,30.10
2019-02-21T13:30:16.242Z,31.13
2019-02-21T13:32:44.302Z,30.20
2019-02-21T13:35:12.410Z,28.10
2019-02-21T13:37:40.524Z,31.47
2019-02-21T13:40:09.746Z,29.13
2019-02-21T13:42:37.806Z,29.50
2019-02-21T13:45:06.632Z,28.30
2019-02-21T13:47:35.962Z,36.10
2019-02-21T13:50:05.715Z,29.93
2019-02-21T13:52:33.762Z,29.00
2019-02-21T13:55:01.818Z,30.97
2019-02-21T13:57:29.866Z,28.43
2019-02-21T13:59:58.558Z,26.57
2019-02-21T14:02:26.715Z,28.37
2019-02-21T14:04:54.774Z,30.70
2019-02-21T14:07:22.826Z,29.30
2019-02-21T14:09:51.774Z,29.47
2019-02-21T14:12:19.823Z,29.07
2019-02-21T14:14:47.886Z,29.20
2019-02-21T14:17:15.942Z,30.93
2019-02-21T14:19:44.000Z,34.57
2019-02-21T14:22:12.046Z,32.37
2019-02-21T14:24:40.104Z,31.60
2019-02-21T14:27:08.922Z,31.97
2019-02-21T14:29:39.498Z,27.07
2019-02-21T14:32:06.867Z,34.17
2019-02-21T14:34:34.964Z,31.07
2019-02-21T14:37:03.019Z,30.87
2019-02-21T14:39:31.073Z,29.83
2019-02-21T14:41:59.135Z,30.37
2019-02-21T14:44:27.200Z,31.67
2019-02-21T14:46:55.249Z,30.40
2019-02-21T14:49:25.660Z,29.70
2019-02-21T14:51:53.870Z,26.80
2019-02-21T14:54:22.050Z,32.47
2019-02-21T14:56:50.117Z,26.23
2019-02-21T14:59:19.906Z,29.53
2019-02-21T15:01:48.668Z,24.93
2019-02-21T15:04:16.758Z,25.60
2019-02-21T15:06:44.815Z,28.13
2019-02-21T15:09:12.906Z,27.70
2019-02-21T15:11:40.963Z,27.00
2019-02-21T15:14:09.020Z,29.23
2019-02-21T15:16:37.067Z,30.40
2019-02-21T15:19:05.877Z,29.87
2019-02-21T15:21:34.079Z,25.47
2019-02-21T15:24:02.165Z,29.33
2019-02-21T15:26:30.210Z,26.23
2019-02-21T15:29:00.063Z,28.40
2019-02-21T15:31:28.042Z,32.53
2019-02-21T15:33:56.099Z,29.40
2019-02-21T15:36:24.143Z,28.83
2019-02-21T15:38:52.194Z,28.57
2019-02-21T15:41:20.339Z,30.53
2019-02-21T15:43:48.427Z,31.27
2019-02-21T15:46:16.470Z,30.67
2019-02-21T15:48:44.883Z,29.23
2019-02-21T15:51:13.031Z,29.43
2019-02-21T15:53:41.071Z,26.60
2019-02-21T15:56:09.137Z,32.70
2019-02-21T15:58:37.203Z,27.60
2019-02-21T16:01:05.264Z,33.53
2019-02-21T16:03:33.306Z,29.27
2019-02-21T16:06:01.367Z,33.87
2019-02-21T16:08:29.435Z,39.27
2019-02-21T16:10:57.490Z,31.47
2019-02-21T16:13:25.654Z,30.23
2019-02-21T16:15:53.780Z,35.60
2019-02-21T16:18:21.842Z,29.70
2019-02-21T16:20:49.910Z,25.93
2019-02-21T16:23:19.401Z,34.53
2019-02-21T16:25:47.510Z,30.17
2019-02-21T16:28:15.573Z,30.10
2019-02-21T16:30:43.655Z,31.00
2019-02-21T16:33:11.706Z,30.80
2019-02-21T16:35:39.773Z,31.20
2019-02-21T16:38:07.819Z,30.60
2019-02-21T16:40:35.967Z,35.10
2019-02-21T16:43:04.016Z,36.60
2019-02-21T16:45:42.972Z,28.50
2019-02-21T16:48:01.844Z,34.73
2019-02-21T16:50:30.351Z,33.63
2019-02-21T16:52:58.559Z,31.53
2019-02-21T16:55:26.602Z,31.63
2019-02-21T16:57:54.659Z,32.80
2019-02-21T17:00:23.382Z,32.17
2019-02-21T17:02:51.471Z,29.97
2019-02-21T17:05:19.642Z,35.53
2019-02-21T17:07:47.722Z,29.57
2019-02-21T17:10:16.157Z,30.57
2019-02-21T17:12:44.192Z,31.03
2019-02-21T17:15:12.915Z,36.43
2019-02-21T17:17:40.980Z,31.60
2019-02-21T17:20:10.561Z,34.17
2019-02-21T17:22:38.626Z,33.73
2019-02-21T17:25:10.384Z,29.10
2019-02-21T17:27:38.434Z,33.73
2019-02-21T17:30:08.033Z,32.83
2019-02-21T17:32:36.084Z,33.80
2019-02-21T17:35:04.726Z,32.83
2019-02-21T17:37:32.782Z,33.43
2019-02-21T17:40:00.830Z,33.67
2019-02-21T17:42:28.898Z,36.00
2019-02-21T17:44:56.961Z,35.87
2019-02-21T17:47:24.999Z,30.87
2019-02-21T17:49:53.076Z,29.47
2019-02-21T17:52:21.115Z,33.40
2019-02-21T17:54:49.163Z,30.77
2019-02-21T17:57:17.231Z,33.27
2019-02-21T17:59:45.283Z,31.77
2019-02-21T18:02:13.350Z,32.63
2019-02-21T18:04:41.412Z,31.10
2019-02-21T18:07:09.475Z,32.00
2019-02-21T18:09:37.523Z,32.67
2019-02-21T18:12:05.659Z,37.73
2019-02-21T18:14:33.754Z,37.00
2019-02-21T18:17:01.800Z,30.43
2019-02-21T18:19:29.858Z,31.60
2019-02-21T18:21:57.909Z,34.57
2019-02-21T18:24:25.982Z,36.60
2019-02-21T18:26:54.042Z,31.97
2019-02-21T18:29:22.100Z,41.13
2019-02-21T18:31:50.158Z,36.37
2019-02-21T18:34:18.202Z,31.73
2019-02-21T18:36:46.258Z,32.27
2019-02-21T18:39:14.399Z,34.67
2019-02-21T18:41:42.477Z,39.50
2019-02-21T18:44:10.539Z,35.47
2019-02-21T18:46:38.594Z,37.10
2019-02-21T18:49:06.644Z,41.70
2019-02-21T18:51:35.625Z,34.03
2019-02-21T18:54:03.804Z,35.70
2019-02-21T18:56:31.825Z,38.87
2019-02-21T18:58:59.884Z,32.07
2019-02-21T19:01:27.928Z,32.17
2019-02-21T19:03:56.001Z,35.03
2019-02-21T19:06:24.054Z,34.73
2019-02-21T19:08:52.102Z,39.60
2019-02-21T19:11:20.169Z,34.17
2019-02-21T19:13:48.231Z,32.70
2019-02-21T19:16:16.438Z,31.40
2019-02-21T19:18:44.537Z,32.17
2019-02-21T19:21:12.760Z,33.67
2019-02-21T19:23:40.815Z,39.97
2019-02-21T19:26:08.884Z,33.17
2019-02-21T19:28:36.950Z,39.50
2019-02-21T19:31:06.538Z,31.30
2019-02-21T19:33:34.691Z,32.30
2019-02-21T19:36:02.782Z,32.80
2019-02-21T19:38:30.834Z,32.40
2019-02-21T19:41:00.177Z,28.80
2019-02-21T19:43:28.277Z,34.07
2019-02-21T19:45:56.348Z,30.33
2019-02-21T19:48:24.401Z,31.83
2019-02-21T19:50:52.448Z,31.67
2019-02-21T19:53:20.515Z,33.70
2019-02-21T19:55:48.595Z,30.07
2019-02-21T19:58:16.651Z,32.20
2019-02-21T20:00:45.162Z,29.60
2019-02-21T20:03:13.206Z,29.17
2019-02-21T20:05:41.339Z,28.17
2019-02-21T20:08:20.432Z,32.57
2019-02-21T20:10:39.248Z,34.43
2019-02-21T20:13:08.946Z,30.57
2019-02-21T20:15:37.015Z,28.43
2019-02-21T20:18:05.230Z,31.37
2019-02-21T20:20:33.357Z,33.43
2019-02-21T20:23:01.414Z,30.13
2019-02-21T20:25:29.497Z,34.00
2019-02-21T20:27:57.526Z,30.10
2019-02-21T20:30:25.847Z,32.17
2019-02-21T20:32:53.934Z,27.87
2019-02-21T20:35:22.014Z,30.87
2019-02-21T20:37:50.077Z,30.77
2019-02-21T20:40:18.124Z,30.17
2019-02-21T20:42:46.470Z,28.13
2019-02-21T20:45:14.930Z,29.10
2019-02-21T20:47:42.982Z,28.17
2019-02-21T20:50:12.585Z,30.17
2019-02-21T20:52:40.638Z,27.00
2019-02-21T20:55:09.853Z,28.27
2019-02-21T20:57:37.993Z,28.20
2019-02-21T21:00:07.588Z,29.37
2019-02-21T21:02:35.651Z,27.10
2019-02-21T21:05:04.167Z,30.27
2019-02-21T21:07:32.249Z,22.10
2019-02-21T21:10:00.345Z,27.83
2019-02-21T21:12:28.446Z,27.53
2019-02-21T21:14:56.494Z,24.97
2019-02-21T21:17:24.578Z,27.70
2019-02-21T21:19:52.639Z,31.50
2019-02-21T21:22:20.794Z,26.77
2019-02-21T21:24:48.850Z,30.03
2019-02-21T21:27:16.910Z,27.03
2019-02-21T21:29:44.994Z,30.57
2019-02-21T21:32:13.066Z,30.10
2019-02-21T21:34:41.162Z,30.00
2019-02-21T21:37:09.212Z,29.10
2019-02-21T21:39:37.272Z,32.97
2019-02-21T21:42:05.340Z,29.70
2019-02-21T21:44:33.391Z,37.13
2019-02-21T21:47:01.450Z,31.23
2019-02-21T21:49:29.542Z,32.50
2019-02-21T21:52:01.537Z,33.23
2019-02-21T21:54:29.631Z,34.00
2019-02-21T21:56:57.682Z,28.70
2019-02-21T21:59:25.735Z,30.27
2019-02-21T22:01:53.818Z,32.00
2019-02-21T22:04:21.889Z,27.73
2019-02-21T22:06:49.952Z,29.07
2019-02-21T22:09:18.014Z,32.20
2019-02-21T22:11:46.060Z,38.57
2019-02-21T22:14:14.126Z,38.27
2019-02-21T22:16:42.177Z,38.17
2019-02-21T22:19:10.222Z,35.27
2019-02-21T22:21:38.272Z,35.60
2019-02-21T22:24:06.334Z,44.30
2019-02-21T22:26:34.442Z,35.47
2019-02-21T22:29:02.530Z,35.10
2019-02-21T22:31:30.575Z,38.07
2019-02-21T22:33:58.635Z,39.90
2019-02-21T22:36:26.694Z,43.60
2019-02-21T22:38:54.753Z,39.87
2019-02-21T22:41:22.802Z,44.87
2019-02-21T22:43:50.878Z,40.90
2019-02-21T22:46:18.936Z,44.17
2019-02-21T22:48:47.607Z,36.33
2019-02-21T22:51:15.710Z,41.13
2019-02-21T22:53:43.774Z,40.00
2019-02-21T22:56:11.820Z,38.17
2019-02-21T22:58:45.120Z,38.80
2019-02-21T23:01:20.520Z,40.27
2019-02-21T23:03:49.741Z,39.87
2019-02-21T23:06:22.048Z,43.83
2019-02-21T23:08:51.363Z,43.10
2019-02-21T23:11:19.429Z,40.07
2019-02-21T23:13:47.616Z,41.60
2019-02-21T23:16:15.672Z,44.60
2019-02-21T23:18:43.721Z,43.33
2019-02-21T23:21:11.773Z,40.90
2019-02-21T23:23:39.839Z,38.10
2019-02-21T23:26:07.889Z,40.40
2019-02-21T23:28:35.938Z,38.13
2019-02-21T23:31:03.996Z,41.20
2019-02-21T23:33:33.682Z,37.43
2019-02-21T23:36:01.782Z,43.43
2019-02-21T23:38:29.842Z,43.40
2019-02-21T23:40:57.895Z,41.57
2019-02-21T23:43:25.954Z,43.70
2019-02-21T23:45:54.003Z,41.60
2019-02-21T23:48:22.054Z,38.43
2019-02-21T23:50:50.202Z,42.73
2019-02-21T23:53:18.263Z,43.37
2019-02-21T23:55:46.314Z,41.20
2019-02-21T23:58:14.380Z,41.53
